createdAt,value
2016-12-08T00:01:02.483Z,0
2016-12-08T00:02:13.227Z,0
2016-12-08T00:03:23.948Z,0
2016-12-08T00:04:34.694Z,0
2016-12-08T00:05:45.415Z,0
2016-12-08T00:06:56.128Z,0
2016-12-08T00:08:06.861Z,0
2016-12-08T00:09:17.596Z,0
2016-12-08T00:10:28.323Z,0
2016-12-08T00:11:39.045Z,0
2016-12-08T00:12:49.767Z,0
2016-12-08T00:14:00.837Z,0
2016-12-08T00:15:11.580Z,0
2016-12-08T00:16:22.308Z,0
2016-12-08T00:17:33.026Z,0
2016-12-08T00:18:43.776Z,0
2016-12-08T00:19:54.522Z,0
2016-12-08T00:21:05.263Z,0
2016-12-08T00:22:16.064Z,0
2016-12-08T00:23:26.796Z,0
2016-12-08T00:24:37.825Z,0
2016-12-08T00:25:48.551Z,0
2016-12-08T00:26:59.297Z,0
2016-12-08T00:28:10.013Z,0
2016-12-08T00:29:20.741Z,0
2016-12-08T00:30:31.455Z,0
2016-12-08T00:31:42.206Z,0
2016-12-08T00:32:52.954Z,0
2016-12-08T00:34:03.674Z,0
2016-12-08T00:35:14.393Z,0
2016-12-08T00:36:25.139Z,0
2016-12-08T00:37:35.862Z,0
2016-12-08T00:38:46.625Z,0
2016-12-08T00:39:57.353Z,0
2016-12-08T00:41:08.100Z,0
2016-12-08T00:42:18.817Z,0
2016-12-08T00:43:29.512Z,0
2016-12-08T00:44:40.229Z,0
2016-12-08T00:45:50.932Z,0
2016-12-08T00:47:01.656Z,0
2016-12-08T00:48:12.401Z,0
2016-12-08T00:49:23.122Z,0
2016-12-08T00:50:33.843Z,0
2016-12-08T00:51:44.583Z,0
2016-12-08T00:52:55.296Z,0
2016-12-08T00:54:06.044Z,0
2016-12-08T00:55:16.779Z,0
2016-12-08T00:56:27.517Z,0
2016-12-08T00:57:38.244Z,0
2016-12-08T00:58:48.966Z,0
2016-12-08T00:59:59.713Z,0
2016-12-08T01:01:10.459Z,0
2016-12-08T01:02:21.173Z,0
2016-12-08T01:03:31.869Z,0
2016-12-08T01:04:42.590Z,0
2016-12-08T01:05:53.315Z,0
2016-12-08T01:07:04.062Z,0
2016-12-08T01:08:14.803Z,0
2016-12-08T01:09:25.525Z,0
2016-12-08T01:10:36.293Z,0
2016-12-08T01:11:47.038Z,0
2016-12-08T01:12:57.787Z,0
2016-12-08T01:14:08.539Z,0
2016-12-08T01:15:19.254Z,0
2016-12-08T01:16:29.981Z,0
2016-12-08T01:17:40.713Z,0
2016-12-08T01:18:51.772Z,0
2016-12-08T01:20:02.491Z,0
2016-12-08T01:21:13.210Z,0
2016-12-08T01:22:23.938Z,0
2016-12-08T01:23:34.706Z,0
2016-12-08T01:24:45.428Z,0
2016-12-08T01:25:56.165Z,0
2016-12-08T01:27:06.894Z,0
2016-12-08T01:28:17.629Z,0
2016-12-08T01:29:28.390Z,0
2016-12-08T01:30:39.133Z,0
2016-12-08T01:31:49.859Z,0
2016-12-08T01:33:00.595Z,0
2016-12-08T01:34:11.308Z,0
2016-12-08T01:35:22.041Z,0
2016-12-08T01:36:32.808Z,0
2016-12-08T01:37:43.547Z,0
2016-12-08T01:38:54.297Z,0
2016-12-08T01:40:05.000Z,0
2016-12-08T01:41:15.748Z,0
2016-12-08T01:42:26.488Z,0
2016-12-08T01:43:37.202Z,0
2016-12-08T01:44:47.909Z,0
2016-12-08T01:45:58.634Z,0
2016-12-08T01:47:09.373Z,0
2016-12-08T01:48:20.099Z,0
2016-12-08T01:49:30.836Z,0
2016-12-08T01:50:41.536Z,0
2016-12-08T01:51:52.260Z,0
2016-12-08T01:53:03.005Z,0
2016-12-08T01:54:13.722Z,0
2016-12-08T01:55:24.444Z,0
2016-12-08T01:56:35.164Z,0
2016-12-08T01:57:45.890Z,0
2016-12-08T01:58:56.635Z,0
2016-12-08T02:00:07.381Z,0
2016-12-08T02:01:18.123Z,0
2016-12-08T02:02:28.825Z,0
2016-12-08T02:03:39.570Z,0
2016-12-08T02:04:50.327Z,0
2016-12-08T02:06:01.067Z,0
2016-12-08T02:07:11.808Z,0
2016-12-08T02:08:22.570Z,0
2016-12-08T02:09:33.310Z,0
2016-12-08T02:10:44.033Z,0
2016-12-08T02:11:54.760Z,0
2016-12-08T02:13:05.487Z,0
2016-12-08T02:14:16.532Z,0
2016-12-08T02:15:27.253Z,0
2016-12-08T02:16:37.969Z,0
2016-12-08T02:17:48.689Z,0
2016-12-08T02:18:59.427Z,0
2016-12-08T02:20:10.460Z,0
2016-12-08T02:21:21.182Z,0
2016-12-08T02:22:31.903Z,0
2016-12-08T02:23:42.624Z,0
2016-12-08T02:24:53.364Z,0
2016-12-08T02:26:04.090Z,0
2016-12-08T02:27:14.832Z,0
2016-12-08T02:28:25.555Z,0
2016-12-08T02:29:36.270Z,0
2016-12-08T02:30:47.009Z,0
2016-12-08T02:31:57.772Z,0
2016-12-08T02:33:08.530Z,0
2016-12-08T02:34:19.283Z,0
2016-12-08T02:35:30.008Z,0
2016-12-08T02:36:40.747Z,0
2016-12-08T02:37:51.476Z,0
2016-12-08T02:39:02.239Z,0
2016-12-08T02:40:12.967Z,0
2016-12-08T02:41:23.709Z,0
2016-12-08T02:42:34.430Z,0
2016-12-08T02:43:45.156Z,0
2016-12-08T02:44:55.897Z,0
2016-12-08T02:46:06.640Z,0
2016-12-08T02:47:17.366Z,0
2016-12-08T02:48:28.091Z,0
2016-12-08T02:49:38.810Z,0
2016-12-08T02:50:49.552Z,0
2016-12-08T02:52:00.279Z,0
2016-12-08T02:53:11.319Z,0
2016-12-08T02:54:22.069Z,0
2016-12-08T02:55:32.833Z,0
2016-12-08T02:56:43.582Z,0
2016-12-08T02:57:54.325Z,0
2016-12-08T02:59:05.067Z,0
2016-12-08T03:00:15.776Z,0
2016-12-08T03:01:26.518Z,0
2016-12-08T03:02:37.237Z,0
2016-12-08T03:03:47.980Z,0
2016-12-08T03:04:58.704Z,0
2016-12-08T03:06:09.405Z,0
2016-12-08T03:07:20.151Z,0
2016-12-08T03:08:30.872Z,0
2016-12-08T03:09:41.617Z,0
2016-12-08T03:10:52.342Z,0
2016-12-08T03:12:03.097Z,0
2016-12-08T03:13:13.830Z,0
2016-12-08T03:14:24.577Z,0
2016-12-08T03:15:35.293Z,0
2016-12-08T03:16:46.044Z,0
2016-12-08T03:17:56.786Z,0
2016-12-08T03:19:07.553Z,0
2016-12-08T03:20:18.319Z,0
2016-12-08T03:21:29.048Z,0
2016-12-08T03:22:39.800Z,0
2016-12-08T03:23:50.537Z,0
2016-12-08T03:25:01.237Z,0
2016-12-08T03:26:11.957Z,0
2016-12-08T03:27:22.678Z,0
2016-12-08T03:28:33.421Z,0
2016-12-08T03:29:44.145Z,0
2016-12-08T03:30:54.883Z,0
2016-12-08T03:32:05.620Z,0
2016-12-08T03:33:16.380Z,0
2016-12-08T03:34:27.083Z,0
2016-12-08T03:35:37.830Z,0
2016-12-08T03:36:48.546Z,0
2016-12-08T03:37:59.246Z,0
2016-12-08T03:39:10.284Z,0
2016-12-08T03:40:21.037Z,0
2016-12-08T03:41:31.778Z,0
2016-12-08T03:42:42.546Z,0
2016-12-08T03:43:53.300Z,0
2016-12-08T03:45:04.064Z,0
2016-12-08T03:46:14.834Z,0
2016-12-08T03:47:25.590Z,0
2016-12-08T03:48:36.339Z,0
2016-12-08T03:49:47.121Z,0
2016-12-08T03:50:57.892Z,0
2016-12-08T03:52:08.645Z,0
2016-12-08T03:53:19.409Z,0
2016-12-08T03:54:30.156Z,0
2016-12-08T03:55:40.952Z,0
2016-12-08T03:56:51.705Z,0
2016-12-08T03:58:02.485Z,0
2016-12-08T03:59:13.336Z,0
2016-12-08T04:00:24.452Z,0
2016-12-08T04:01:35.273Z,0
2016-12-08T04:02:46.094Z,0
2016-12-08T04:03:56.917Z,0
2016-12-08T04:05:07.728Z,0
2016-12-08T04:06:18.532Z,0
2016-12-08T04:07:29.356Z,0
2016-12-08T04:08:40.174Z,0
2016-12-08T04:09:50.987Z,0
2016-12-08T04:11:01.793Z,0
2016-12-08T04:12:12.587Z,0
2016-12-08T04:13:23.407Z,0
2016-12-08T04:14:34.221Z,0
2016-12-08T04:15:45.025Z,0
2016-12-08T04:16:55.847Z,0
2016-12-08T04:18:06.667Z,0
2016-12-08T04:19:17.488Z,0
2016-12-08T04:20:28.309Z,0
2016-12-08T04:21:39.129Z,0
2016-12-08T04:22:50.251Z,0
2016-12-08T04:24:01.072Z,0
2016-12-08T04:25:11.894Z,0
2016-12-08T04:26:22.714Z,0
2016-12-08T04:27:33.527Z,0
2016-12-08T04:28:44.348Z,0
2016-12-08T04:29:55.169Z,0
2016-12-08T04:31:05.975Z,0
2016-12-08T04:32:16.795Z,0
2016-12-08T04:33:27.615Z,0
2016-12-08T04:34:38.453Z,0
2016-12-08T04:35:49.257Z,0
2016-12-08T04:37:00.078Z,0
2016-12-08T04:38:10.899Z,0
2016-12-08T04:39:21.720Z,0
2016-12-08T04:40:32.533Z,0
2016-12-08T04:41:43.362Z,0
2016-12-08T04:42:54.157Z,0
2016-12-08T04:44:04.980Z,0
2016-12-08T04:45:15.800Z,0
2016-12-08T04:46:26.622Z,0
2016-12-08T04:47:37.470Z,0
2016-12-08T04:48:48.288Z,0
2016-12-08T04:49:59.109Z,0
2016-12-08T04:51:09.960Z,0
2016-12-08T04:52:20.752Z,0
2016-12-08T04:53:31.572Z,0
2016-12-08T04:54:42.394Z,0
2016-12-08T04:55:53.215Z,0
2016-12-08T04:57:04.036Z,0
2016-12-08T04:58:14.856Z,0
2016-12-08T04:59:25.678Z,0
2016-12-08T05:00:36.499Z,0
2016-12-08T05:01:47.320Z,0
2016-12-08T05:02:58.141Z,0
2016-12-08T05:04:08.963Z,0
2016-12-08T05:05:19.775Z,0
2016-12-08T05:06:30.579Z,0
2016-12-08T05:07:41.424Z,0
2016-12-08T05:08:52.247Z,0
2016-12-08T05:10:03.067Z,0
2016-12-08T05:11:13.889Z,0
2016-12-08T05:12:24.709Z,0
2016-12-08T05:13:35.530Z,0
2016-12-08T05:14:46.352Z,0
2016-12-08T05:15:57.165Z,0
2016-12-08T05:17:07.986Z,0
2016-12-08T05:18:18.791Z,0
2016-12-08T05:19:29.903Z,0
2016-12-08T05:20:40.735Z,0
2016-12-08T05:21:51.553Z,0
2016-12-08T05:23:02.348Z,0
2016-12-08T05:24:13.140Z,0
2016-12-08T05:25:23.936Z,0
2016-12-08T05:26:34.726Z,0
2016-12-08T05:27:45.534Z,0
2016-12-08T05:28:56.347Z,0
2016-12-08T05:30:07.143Z,0
2016-12-08T05:31:17.939Z,0
2016-12-08T05:32:28.718Z,0
2016-12-08T05:33:39.510Z,0
2016-12-08T05:34:50.298Z,0
2016-12-08T05:36:01.094Z,0
2016-12-08T05:37:11.880Z,0
2016-12-08T05:38:22.669Z,0
2016-12-08T05:39:33.439Z,0
2016-12-08T05:40:44.199Z,0
2016-12-08T05:41:54.923Z,0
2016-12-08T05:43:05.662Z,0
2016-12-08T05:44:16.412Z,0
2016-12-08T05:45:27.140Z,0
2016-12-08T05:46:37.875Z,0
2016-12-08T05:47:48.606Z,0
2016-12-08T05:48:59.329Z,0
2016-12-08T05:50:10.076Z,0
2016-12-08T05:51:21.121Z,0
2016-12-08T05:52:31.823Z,0
2016-12-08T05:53:42.560Z,0
2016-12-08T05:54:53.287Z,0
2016-12-08T05:56:04.026Z,0
2016-12-08T05:57:14.754Z,0
2016-12-08T05:58:25.498Z,0
2016-12-08T05:59:36.232Z,0
2016-12-08T06:00:46.965Z,0
2016-12-08T06:01:57.706Z,0
2016-12-08T06:03:08.432Z,0
2016-12-08T06:04:19.220Z,0
2016-12-08T06:05:29.925Z,0
2016-12-08T06:06:40.669Z,0
2016-12-08T06:07:51.417Z,0
2016-12-08T06:09:02.161Z,0
2016-12-08T06:10:12.906Z,0
2016-12-08T06:11:23.655Z,0
2016-12-08T06:12:34.401Z,0
2016-12-08T06:13:45.141Z,0
2016-12-08T06:14:55.888Z,0
2016-12-08T06:16:06.627Z,0
2016-12-08T06:17:17.360Z,0
2016-12-08T06:18:28.101Z,0
2016-12-08T06:19:38.826Z,0
2016-12-08T06:20:49.568Z,0
2016-12-08T06:22:00.314Z,0
2016-12-08T06:23:11.010Z,0
2016-12-08T06:24:21.736Z,0
2016-12-08T06:25:32.452Z,0
2016-12-08T06:26:43.173Z,0
2016-12-08T06:27:53.911Z,4
2016-12-08T06:29:04.643Z,4
2016-12-08T06:30:15.359Z,4
2016-12-08T06:31:26.137Z,4
2016-12-08T06:32:36.900Z,4
2016-12-08T06:33:47.642Z,8
2016-12-08T06:34:58.371Z,8
2016-12-08T06:36:09.118Z,12
2016-12-08T06:37:19.838Z,12
2016-12-08T06:38:30.581Z,12
2016-12-08T06:39:41.305Z,12
2016-12-08T06:40:52.026Z,20
2016-12-08T06:42:02.770Z,20
2016-12-08T06:43:13.499Z,28
2016-12-08T06:44:24.218Z,32
2016-12-08T06:45:34.989Z,40
2016-12-08T06:46:45.735Z,44
2016-12-08T06:47:56.499Z,48
2016-12-08T06:49:07.228Z,56
2016-12-08T06:50:17.953Z,64
2016-12-08T06:51:28.687Z,72
2016-12-08T06:52:39.411Z,80
2016-12-08T06:53:50.136Z,96
2016-12-08T06:55:00.856Z,104
2016-12-08T06:56:11.600Z,116
2016-12-08T06:57:22.320Z,128
2016-12-08T06:58:33.058Z,144
2016-12-08T06:59:43.762Z,152
2016-12-08T07:00:54.464Z,168
2016-12-08T07:02:05.200Z,184
2016-12-08T07:03:15.928Z,196
2016-12-08T07:04:26.676Z,208
2016-12-08T07:05:37.420Z,224
2016-12-08T07:06:48.162Z,240
2016-12-08T07:07:59.212Z,252
2016-12-08T07:09:09.959Z,272
2016-12-08T07:10:20.705Z,296
2016-12-08T07:11:31.442Z,316
2016-12-08T07:12:42.173Z,340
2016-12-08T07:13:52.917Z,364
2016-12-08T07:15:03.663Z,388
2016-12-08T07:16:14.387Z,412
2016-12-08T07:17:25.155Z,436
2016-12-08T07:18:35.901Z,464
2016-12-08T07:19:46.665Z,492
2016-12-08T07:20:57.389Z,524
2016-12-08T07:22:08.113Z,556
2016-12-08T07:23:18.859Z,592
2016-12-08T07:24:29.604Z,636
2016-12-08T07:25:40.347Z,688
2016-12-08T07:26:51.072Z,748
2016-12-08T07:28:01.795Z,812
2016-12-08T07:29:12.517Z,884
2016-12-08T07:30:23.262Z,964
2016-12-08T07:31:34.002Z,1044
2016-12-08T07:32:44.752Z,1128
2016-12-08T07:33:55.802Z,1208
2016-12-08T07:35:06.522Z,1288
2016-12-08T07:36:17.282Z,1352
2016-12-08T07:37:28.007Z,1404
2016-12-08T07:38:38.727Z,1456
2016-12-08T07:39:49.455Z,1504
2016-12-08T07:41:00.199Z,1552
2016-12-08T07:42:10.946Z,1600
2016-12-08T07:43:21.712Z,1648
2016-12-08T07:44:32.455Z,1704
2016-12-08T07:45:43.184Z,1768
2016-12-08T07:46:53.943Z,1840
2016-12-08T07:48:04.670Z,1920
2016-12-08T07:49:15.711Z,1980
2016-12-08T07:50:26.443Z,2016
2016-12-08T07:51:37.464Z,2072
2016-12-08T07:52:48.158Z,2156
2016-12-08T07:53:58.901Z,2240
2016-12-08T07:55:09.627Z,2316
2016-12-08T07:56:20.353Z,2380
2016-12-08T07:57:31.064Z,2456
2016-12-08T07:58:41.787Z,2540
2016-12-08T07:59:52.510Z,2624
2016-12-08T08:01:03.275Z,2716
2016-12-08T08:02:14.028Z,2820
2016-12-08T08:03:24.786Z,2940
2016-12-08T08:04:35.545Z,3052
2016-12-08T08:05:46.261Z,3236
2016-12-08T08:06:57.007Z,3428
2016-12-08T08:08:07.720Z,3624
2016-12-08T08:09:18.483Z,3828
2016-12-08T08:10:29.239Z,4056
2016-12-08T08:11:39.970Z,4208
2016-12-08T08:12:50.704Z,4320
2016-12-08T08:14:01.434Z,4404
2016-12-08T08:15:12.154Z,4376
2016-12-08T08:16:22.930Z,4248
2016-12-08T08:17:33.651Z,4036
2016-12-08T08:18:44.389Z,3872
2016-12-08T08:19:55.117Z,3864
2016-12-08T08:21:05.861Z,3992
2016-12-08T08:22:16.580Z,4100
2016-12-08T08:23:27.326Z,4284
2016-12-08T08:24:38.053Z,4456
2016-12-08T08:25:48.793Z,4548
2016-12-08T08:26:59.514Z,4616
2016-12-08T08:28:10.210Z,4648
2016-12-08T08:29:20.930Z,4728
2016-12-08T08:30:31.668Z,4812
2016-12-08T08:31:42.448Z,4872
2016-12-08T08:32:53.168Z,4896
2016-12-08T08:34:03.882Z,4976
2016-12-08T08:35:14.608Z,5036
2016-12-08T08:36:25.360Z,5064
2016-12-08T08:37:36.077Z,5036
2016-12-08T08:38:46.823Z,4964
2016-12-08T08:39:57.586Z,4980
2016-12-08T08:41:08.315Z,4912
2016-12-08T08:42:19.041Z,4836
2016-12-08T08:43:29.784Z,4820
2016-12-08T08:44:40.525Z,4788
2016-12-08T08:45:51.254Z,4696
2016-12-08T08:47:01.980Z,4640
2016-12-08T08:48:12.695Z,4600
2016-12-08T08:49:23.447Z,4524
2016-12-08T08:50:34.187Z,4444
2016-12-08T08:51:44.929Z,4312
2016-12-08T08:52:55.679Z,4200
2016-12-08T08:54:06.425Z,4128
2016-12-08T08:55:17.171Z,4120
2016-12-08T08:56:27.918Z,4176
2016-12-08T08:57:38.680Z,4268
2016-12-08T08:58:49.405Z,4388
2016-12-08T09:00:00.168Z,4524
2016-12-08T09:01:11.214Z,4652
2016-12-08T09:02:21.960Z,4720
2016-12-08T09:03:32.693Z,4748
2016-12-08T09:04:43.436Z,4748
2016-12-08T09:05:54.179Z,4720
2016-12-08T09:07:04.906Z,4720
2016-12-08T09:08:15.667Z,4764
2016-12-08T09:09:26.412Z,4840
2016-12-08T09:10:37.145Z,4880
2016-12-08T09:11:47.891Z,4896
2016-12-08T09:12:58.632Z,4916
2016-12-08T09:14:09.378Z,4936
2016-12-08T09:15:20.084Z,4956
2016-12-08T09:16:30.826Z,5016
2016-12-08T09:17:41.570Z,5100
2016-12-08T09:18:52.292Z,5156
2016-12-08T09:20:03.075Z,5176
2016-12-08T09:21:13.834Z,5172
2016-12-08T09:22:24.591Z,5160
2016-12-08T09:23:35.352Z,5168
2016-12-08T09:24:46.092Z,5220
2016-12-08T09:25:56.842Z,5324
2016-12-08T09:27:07.584Z,5432
2016-12-08T09:28:18.308Z,5500
2016-12-08T09:29:29.028Z,5548
2016-12-08T09:30:39.725Z,5552
2016-12-08T09:31:50.448Z,5516
2016-12-08T09:33:01.193Z,5476
2016-12-08T09:34:11.935Z,5436
2016-12-08T09:35:22.665Z,5396
2016-12-08T09:36:33.409Z,5308
2016-12-08T09:37:44.129Z,5184
2016-12-08T09:38:54.848Z,5060
2016-12-08T09:40:05.595Z,4936
2016-12-08T09:41:16.358Z,4836
2016-12-08T09:42:27.087Z,4788
2016-12-08T09:43:37.828Z,4736
2016-12-08T09:44:48.578Z,4720
2016-12-08T09:45:59.330Z,4708
2016-12-08T09:47:10.120Z,4640
2016-12-08T09:48:20.859Z,4524
2016-12-08T09:49:31.612Z,4332
2016-12-08T09:50:42.334Z,4092
2016-12-08T09:51:53.111Z,3768
2016-12-08T09:53:03.876Z,3472
2016-12-08T09:54:14.634Z,3284
2016-12-08T09:55:25.364Z,3180
2016-12-08T09:56:36.139Z,3196
2016-12-08T09:57:46.882Z,3224
2016-12-08T09:58:57.606Z,3164
2016-12-08T10:00:08.354Z,3096
2016-12-08T10:01:19.094Z,3012
2016-12-08T10:02:29.845Z,2944
2016-12-08T10:03:40.584Z,3004
2016-12-08T10:04:51.911Z,3132
2016-12-08T10:06:02.682Z,3304
2016-12-08T10:07:13.420Z,3492
2016-12-08T10:08:24.162Z,3748
2016-12-08T10:09:34.892Z,4044
2016-12-08T10:10:45.644Z,4304
2016-12-08T10:11:56.383Z,4564
2016-12-08T10:13:07.404Z,4728
2016-12-08T10:14:18.142Z,4812
2016-12-08T10:15:28.852Z,4992
2016-12-08T10:16:39.870Z,5140
2016-12-08T10:17:50.893Z,5268
2016-12-08T10:19:01.652Z,5448
2016-12-08T10:20:12.380Z,5664
2016-12-08T10:21:23.101Z,5872
2016-12-08T10:22:34.152Z,6104
2016-12-08T10:23:44.893Z,6240
2016-12-08T10:24:55.589Z,6388
2016-12-08T10:26:06.327Z,6564
2016-12-08T10:27:17.082Z,6700
2016-12-08T10:28:27.827Z,6796
2016-12-08T10:29:38.590Z,6832
2016-12-08T10:30:49.345Z,6820
2016-12-08T10:32:00.066Z,6780
2016-12-08T10:33:10.816Z,6812
2016-12-08T10:34:21.556Z,6884
2016-12-08T10:35:32.271Z,7080
2016-12-08T10:36:43.031Z,7416
2016-12-08T10:37:53.774Z,7588
2016-12-08T10:39:04.514Z,7636
2016-12-08T10:40:15.268Z,7800
2016-12-08T10:41:26.008Z,7856
2016-12-08T10:42:36.761Z,7916
2016-12-08T10:43:47.501Z,8060
2016-12-08T10:44:58.226Z,8300
2016-12-08T10:46:09.298Z,8628
2016-12-08T10:47:20.041Z,8928
2016-12-08T10:48:30.785Z,9120
2016-12-08T10:49:41.505Z,9240
2016-12-08T10:50:52.235Z,9224
2016-12-08T10:52:02.953Z,9220
2016-12-08T10:53:13.699Z,9132
2016-12-08T10:54:24.457Z,9080
2016-12-08T10:55:35.215Z,8928
2016-12-08T10:56:45.938Z,8632
2016-12-08T10:57:56.686Z,8364
2016-12-08T10:59:07.424Z,8104
2016-12-08T11:00:18.150Z,7792
2016-12-08T11:01:28.920Z,7488
2016-12-08T11:02:39.644Z,7356
2016-12-08T11:03:50.405Z,7156
2016-12-08T11:05:01.151Z,6916
2016-12-08T11:06:11.879Z,6708
2016-12-08T11:07:22.600Z,6548
2016-12-08T11:08:33.342Z,6424
2016-12-08T11:09:44.068Z,6240
2016-12-08T11:10:54.807Z,6116
2016-12-08T11:12:05.838Z,5956
2016-12-08T11:13:16.599Z,5828
2016-12-08T11:14:27.331Z,5648
2016-12-08T11:15:38.068Z,5552
2016-12-08T11:16:48.832Z,5280
2016-12-08T11:17:59.585Z,5180
2016-12-08T11:19:10.332Z,5016
2016-12-08T11:20:21.081Z,4908
2016-12-08T11:21:31.845Z,4912
2016-12-08T11:22:42.598Z,4900
2016-12-08T11:23:53.340Z,4836
2016-12-08T11:25:04.091Z,4676
2016-12-08T11:26:14.808Z,4604
2016-12-08T11:27:25.545Z,4496
2016-12-08T11:28:36.303Z,4440
2016-12-08T11:29:47.036Z,4464
2016-12-08T11:30:57.769Z,4460
2016-12-08T11:32:08.516Z,4392
2016-12-08T11:33:19.238Z,4276
2016-12-08T11:34:29.971Z,4184
2016-12-08T11:35:40.722Z,4148
2016-12-08T11:36:51.464Z,4128
2016-12-08T11:38:02.195Z,4324
2016-12-08T11:39:12.938Z,4016
2016-12-08T11:40:23.662Z,4100
2016-12-08T11:41:34.404Z,3976
2016-12-08T11:42:45.143Z,3456
2016-12-08T11:43:55.943Z,3504
2016-12-08T11:45:06.692Z,3256
2016-12-08T11:46:17.413Z,3268
2016-12-08T11:47:28.208Z,3220
2016-12-08T11:48:39.233Z,3168
2016-12-08T11:49:49.980Z,3268
2016-12-08T11:51:00.727Z,3284
2016-12-08T11:52:11.468Z,3200
2016-12-08T11:53:22.510Z,3220
2016-12-08T11:54:33.241Z,3256
2016-12-08T11:55:43.983Z,3312
2016-12-08T11:56:54.702Z,3344
2016-12-08T11:58:05.405Z,3384
2016-12-08T11:59:16.148Z,3484
2016-12-08T12:00:26.895Z,3592
2016-12-08T12:01:37.641Z,3708
2016-12-08T12:02:48.404Z,3804
2016-12-08T12:03:59.131Z,3816
2016-12-08T12:05:09.866Z,3772
2016-12-08T12:06:20.598Z,3652
2016-12-08T12:07:31.316Z,3584
2016-12-08T12:08:42.041Z,3592
2016-12-08T12:09:52.787Z,3592
2016-12-08T12:11:03.553Z,3636
2016-12-08T12:12:14.279Z,3624
2016-12-08T12:13:25.023Z,3592
2016-12-08T12:14:35.745Z,3544
2016-12-08T12:15:46.491Z,3484
2016-12-08T12:16:57.238Z,3460
2016-12-08T12:18:07.979Z,3540
2016-12-08T12:19:18.707Z,3424
2016-12-08T12:20:29.443Z,3488
2016-12-08T12:21:40.188Z,3312
2016-12-08T12:22:50.913Z,3024
2016-12-08T12:24:01.633Z,3060
2016-12-08T12:25:12.334Z,2976
2016-12-08T12:26:23.079Z,2920
2016-12-08T12:27:33.826Z,2988
2016-12-08T12:28:44.560Z,3072
2016-12-08T12:29:55.292Z,3172
2016-12-08T12:31:06.034Z,3208
2016-12-08T12:32:16.732Z,3420
2016-12-08T12:33:27.456Z,3620
2016-12-08T12:34:38.226Z,3892
2016-12-08T12:35:48.972Z,4032
2016-12-08T12:36:59.689Z,4240
2016-12-08T12:38:10.410Z,4756
2016-12-08T12:39:21.163Z,5448
2016-12-08T12:40:31.923Z,5124
2016-12-08T12:41:42.690Z,5176
2016-12-08T12:42:53.411Z,5216
2016-12-08T12:44:04.115Z,4960
2016-12-08T12:45:14.841Z,4772
2016-12-08T12:46:25.610Z,4528
2016-12-08T12:47:36.359Z,4452
2016-12-08T12:48:47.417Z,4336
2016-12-08T12:49:58.125Z,4096
2016-12-08T12:51:08.865Z,4160
2016-12-08T12:52:19.611Z,4128
2016-12-08T12:53:30.337Z,4104
2016-12-08T12:54:41.101Z,4088
2016-12-08T12:55:51.830Z,4208
2016-12-08T12:57:02.571Z,4216
2016-12-08T12:58:13.317Z,4328
2016-12-08T12:59:24.354Z,4344
2016-12-08T13:00:35.066Z,4324
2016-12-08T13:01:46.108Z,4196
2016-12-08T13:02:56.893Z,4032
2016-12-08T13:04:07.622Z,3824
2016-12-08T13:05:18.359Z,3624
2016-12-08T13:06:29.093Z,3364
2016-12-08T13:07:39.865Z,3204
2016-12-08T13:08:50.659Z,3232
2016-12-08T13:10:01.406Z,3048
2016-12-08T13:11:12.151Z,2960
2016-12-08T13:12:22.885Z,2800
2016-12-08T13:13:33.616Z,2784
2016-12-08T13:14:44.361Z,2856
2016-12-08T13:15:55.086Z,2868
2016-12-08T13:17:05.827Z,2848
2016-12-08T13:18:16.573Z,2732
2016-12-08T13:19:27.312Z,2660
2016-12-08T13:20:38.066Z,2620
2016-12-08T13:21:48.783Z,2552
2016-12-08T13:22:59.512Z,2500
2016-12-08T13:24:10.229Z,2428
2016-12-08T13:25:20.971Z,2320
2016-12-08T13:26:31.674Z,2252
2016-12-08T13:27:42.419Z,2180
2016-12-08T13:28:53.162Z,2128
2016-12-08T13:30:03.883Z,2112
2016-12-08T13:31:14.635Z,2120
2016-12-08T13:32:25.360Z,2152
2016-12-08T13:33:36.095Z,2180
2016-12-08T13:34:46.834Z,2268
2016-12-08T13:35:57.585Z,2216
2016-12-08T13:37:08.339Z,2164
2016-12-08T13:38:19.079Z,2104
2016-12-08T13:39:29.819Z,2052
2016-12-08T13:40:40.594Z,2076
2016-12-08T13:41:51.348Z,2132
2016-12-08T13:43:02.106Z,2172
2016-12-08T13:44:12.835Z,2132
2016-12-08T13:45:23.567Z,2064
2016-12-08T13:46:34.303Z,2052
2016-12-08T13:47:45.023Z,2084
2016-12-08T13:48:55.772Z,2112
2016-12-08T13:50:06.490Z,2136
2016-12-08T13:51:17.241Z,2152
2016-12-08T13:52:28.304Z,2140
2016-12-08T13:53:39.051Z,2108
2016-12-08T13:54:49.799Z,2072
2016-12-08T13:56:00.549Z,2032
2016-12-08T13:57:11.608Z,1988
2016-12-08T13:58:22.337Z,1928
2016-12-08T13:59:33.100Z,1880
2016-12-08T14:00:43.854Z,1844
2016-12-08T14:01:54.575Z,1848
2016-12-08T14:03:05.331Z,1876
2016-12-08T14:04:16.092Z,1904
2016-12-08T14:05:26.814Z,1920
2016-12-08T14:06:37.542Z,1916
2016-12-08T14:07:48.284Z,1892
2016-12-08T14:08:59.030Z,1836
2016-12-08T14:10:09.814Z,1776
2016-12-08T14:11:20.569Z,1728
2016-12-08T14:12:31.282Z,1696
2016-12-08T14:13:42.014Z,1668
2016-12-08T14:14:52.760Z,1620
2016-12-08T14:16:03.544Z,1556
2016-12-08T14:17:14.274Z,1484
2016-12-08T14:18:25.000Z,1416
2016-12-08T14:19:35.745Z,1340
2016-12-08T14:20:46.490Z,1268
2016-12-08T14:21:57.235Z,1192
2016-12-08T14:23:07.982Z,1108
2016-12-08T14:24:18.730Z,1020
2016-12-08T14:25:29.474Z,936
2016-12-08T14:26:40.194Z,860
2016-12-08T14:27:50.912Z,800
2016-12-08T14:29:01.634Z,744
2016-12-08T14:30:12.346Z,696
2016-12-08T14:31:23.149Z,656
2016-12-08T14:32:33.896Z,628
2016-12-08T14:33:44.609Z,596
2016-12-08T14:34:55.348Z,564
2016-12-08T14:36:06.084Z,532
2016-12-08T14:37:16.810Z,500
2016-12-08T14:38:27.556Z,456
2016-12-08T14:39:38.277Z,412
2016-12-08T14:40:49.048Z,376
2016-12-08T14:41:59.799Z,344
2016-12-08T14:43:10.564Z,324
2016-12-08T14:44:21.311Z,304
2016-12-08T14:45:32.033Z,284
2016-12-08T14:46:42.778Z,264
2016-12-08T14:47:53.523Z,248
2016-12-08T14:49:04.273Z,224
2016-12-08T14:50:14.992Z,204
2016-12-08T14:51:25.728Z,184
2016-12-08T14:52:36.458Z,164
2016-12-08T14:53:47.199Z,148
2016-12-08T14:54:57.946Z,132
2016-12-08T14:56:08.972Z,116
2016-12-08T14:57:19.738Z,108
2016-12-08T14:58:30.481Z,96
2016-12-08T14:59:41.230Z,88
2016-12-08T15:00:51.978Z,80
2016-12-08T15:02:02.703Z,72
2016-12-08T15:03:13.447Z,64
2016-12-08T15:04:24.165Z,56
2016-12-08T15:05:34.915Z,48
2016-12-08T15:06:45.660Z,44
2016-12-08T15:07:56.424Z,40
2016-12-08T15:09:07.477Z,32
2016-12-08T15:10:18.241Z,24
2016-12-08T15:11:28.974Z,20
2016-12-08T15:12:39.736Z,16
2016-12-08T15:13:50.457Z,12
2016-12-08T15:15:01.196Z,8
2016-12-08T15:16:11.953Z,8
2016-12-08T15:17:22.673Z,8
2016-12-08T15:18:33.417Z,8
2016-12-08T15:19:44.442Z,8
2016-12-08T15:20:55.190Z,4
2016-12-08T15:22:05.930Z,4
2016-12-08T15:23:16.676Z,0
2016-12-08T15:24:27.400Z,4
2016-12-08T15:25:38.151Z,4
2016-12-08T15:26:48.869Z,4
2016-12-08T15:27:59.632Z,0
2016-12-08T15:29:10.356Z,0
2016-12-08T15:30:21.110Z,0
2016-12-08T15:31:31.857Z,0
2016-12-08T15:32:42.577Z,0
2016-12-08T15:33:53.293Z,0
2016-12-08T15:35:04.087Z,0
2016-12-08T15:36:14.825Z,0
2016-12-08T15:37:25.575Z,0
2016-12-08T15:38:36.299Z,0
2016-12-08T15:39:47.020Z,0
2016-12-08T15:40:57.770Z,0
2016-12-08T15:42:08.834Z,0
2016-12-08T15:43:19.586Z,0
2016-12-08T15:44:30.309Z,0
2016-12-08T15:45:41.067Z,0
2016-12-08T15:46:51.801Z,0
2016-12-08T15:48:02.564Z,0
2016-12-08T15:49:13.310Z,0
2016-12-08T15:50:24.064Z,0
2016-12-08T15:51:34.784Z,0
2016-12-08T15:52:45.530Z,0
2016-12-08T15:53:56.280Z,0
2016-12-08T15:55:07.340Z,0
2016-12-08T15:56:18.065Z,0
2016-12-08T15:57:28.786Z,0
2016-12-08T15:58:39.506Z,0
2016-12-08T15:59:50.256Z,0
2016-12-08T16:01:00.998Z,0
2016-12-08T16:02:11.720Z,0
2016-12-08T16:03:22.458Z,0
2016-12-08T16:04:33.211Z,0
2016-12-08T16:05:43.915Z,0
2016-12-08T16:06:54.658Z,0
2016-12-08T16:08:05.704Z,0
2016-12-08T16:09:16.443Z,0
2016-12-08T16:10:27.171Z,0
2016-12-08T16:11:38.213Z,0
2016-12-08T16:12:48.989Z,0
2016-12-08T16:14:00.030Z,0
2016-12-08T16:15:10.776Z,0
2016-12-08T16:16:21.497Z,0
2016-12-08T16:17:32.246Z,0
2016-12-08T16:18:42.989Z,0
2016-12-08T16:19:53.740Z,0
2016-12-08T16:21:04.507Z,0
2016-12-08T16:22:15.249Z,0
2016-12-08T16:23:26.000Z,0
2016-12-08T16:24:36.744Z,0
2016-12-08T16:25:47.491Z,0
2016-12-08T16:26:58.241Z,0
2016-12-08T16:28:08.979Z,0
2016-12-08T16:29:19.720Z,0
2016-12-08T16:30:30.471Z,0
2016-12-08T16:31:41.199Z,0
2016-12-08T16:32:52.243Z,0
2016-12-08T16:34:02.955Z,0